Time;durP1;ratioP1;P1;durP2;ratioP2;P2;SDS_P1;SDS_P2;PMS_P1;PMS_P2;Temp;Humidity;BMP_temperature;BMP_pressure;BME280_temperature;BME280_humidity;BME280_pressure;Samples;Min_cycle;Max_cycle;Signal;HPM_P1;HPM_P2
2022/03/27 03:45:30;;;;;;;21.50;12.15;;;6.90;98.00;;;;;;5959161;23;20201;-88
2022/03/27 03:52:13;;;;;;;;;;;;;;;;;;;;;
2022/03/27 03:59:03;;;;;;;30.48;12.43;;;6.50;98.90;;;;;;6092177;23;20536;-87
2022/03/27 04:02:31;;;;;;;;;;;;;;;;;;;;;
2022/03/27 04:32:18;;;;;;;25.02;11.77;;;6.50;99.90;;;;;;5989637;23;20184;-87
2022/03/27 05:00:54;;;;;;;21.63;11.95;;;6.40;99.90;;;;;;6071730;23;20188;-87
2022/03/27 05:09:41;;;;;;;21.23;10.45;;;6.40;99.90;;;;;;6107964;23;20169;-87
2022/03/27 05:12:47;;;;;;;25.13;12.38;;;6.40;99.90;;;;;;6112266;23;20604;-87
2022/03/27 05:22:26;;;;;;;;;;;;;;;;;;;;;
2022/03/27 05:27:59;;;;;;;20.88;10.98;;;6.30;99.90;;;;;;6101509;23;20209;-84
2022/03/27 05:30:49;;;;;;;22.50;12.10;;;6.30;99.90;;;;;;6102774;23;20219;-85
2022/03/27 05:33:27;;;;;;;22.65;11.43;;;6.40;99.90;;;;;;6105499;23;20204;-86
2022/03/27 05:36:00;;;;;;;21.05;11.98;;;6.40;99.90;;;;;;6104602;23;20279;-85
2022/03/27 05:38:32;;;;;;;28.77;12.80;;;6.40;99.90;;;;;;6111015;23;20169;-86
2022/03/27 05:41:10;;;;;;;24.33;11.95;;;6.40;99.90;;;;;;6113022;23;20191;-87
2022/03/27 05:43:43;;;;;;;25.60;11.90;;;6.40;99.90;;;;;;6105945;23;20220;-84
2022/03/27 05:46:21;;;;;;;24.00;11.93;;;6.30;99.90;;;;;;6109440;23;20668;-85
2022/03/27 05:48:57;;;;;;;24.20;12.70;;;6.20;99.90;;;;;;6113241;23;20176;-85
2022/03/27 05:51:28;;;;;;;23.20;11.80;;;6.30;99.90;;;;;;6104025;23;20503;-85
2022/03/27 05:54:01;;;;;;;20.48;11.20;;;6.30;99.90;;;;;;6103064;23;20177;-85
2022/03/27 05:56:40;;;;;;;27.15;12.05;;;6.20;99.90;;;;;;6103917;23;20624;-86
2022/03/27 05:59:16;;;;;;;22.30;12.85;;;6.10;99.90;;;;;;6103722;23;20542;-86
2022/03/27 06:01:52;;;;;;;25.90;13.48;;;6.10;99.90;;;;;;6103920;23;20191;-86
2022/03/27 06:04:30;;;;;;;21.33;12.07;;;6.10;99.90;;;;;;6105930;23;20220;-86
2022/03/27 06:07:09;;;;;;;23.10;10.98;;;6.10;99.90;;;;;;6106676;23;20224;-86
2022/03/27 06:12:35;;;;;;;20.95;11.10;;;6.20;99.90;;;;;;6115714;23;20255;-86
2022/03/27 06:15:25;;;;;;;19.45;11.00;;;6.30;99.90;;;;;;6112372;23;20177;-86
2022/03/27 06:18:04;;;;;;;25.30;13.70;;;6.40;99.90;;;;;;6113364;23;20188;-87
2022/03/27 06:21:20;;;;;;;31.02;12.38;;;6.50;99.90;;;;;;6106702;23;20180;-86
2022/03/27 06:24:23;;;;;;;24.80;13.15;;;6.60;99.90;;;;;;6098213;23;20275;-86
2022/03/27 06:27:00;;;;;;;23.27;12.75;;;6.90;99.90;;;;;;6106525;23;20287;-87
2022/03/27 06:39:45;;;;;;;22.95;12.75;;;6.80;99.90;;;;;;5988891;23;20259;-86
2022/03/27 06:42:12;;;;;;;23.27;10.63;;;7.00;99.90;;;;;;6076514;23;20669;-86
2022/03/27 06:44:41;;;;;;;28.02;13.30;;;7.10;99.90;;;;;;6084702;23;20452;-87
2022/03/27 06:47:09;;;;;;;24.77;13.00;;;7.20;99.90;;;;;;6082709;23;20532;-86
2022/03/27 06:49:36;;;;;;;26.50;11.73;;;7.30;99.90;;;;;;6084402;23;20802;-86
2022/03/27 06:52:11;;;;;;;25.33;12.40;;;7.40;99.90;;;;;;6079117;23;20481;-87
2022/03/27 06:55:01;;;;;;;24.13;12.90;;;7.50;99.90;;;;;;6077281;23;20386;-88
2022/03/27 06:57:51;;;;;;;25.50;12.80;;;7.70;99.90;;;;;;6055618;23;20460;-87
2022/03/27 07:03:32;;;;;;;23.43;13.17;;;7.90;99.90;;;;;;6077337;23;20407;-89
2022/03/27 07:06:00;;;;;;;23.50;13.30;;;7.90;99.90;;;;;;6074294;23;20469;-88
2022/03/27 07:08:36;;;;;;;25.33;12.63;;;8.00;99.90;;;;;;6074042;23;20417;-88
2022/03/27 07:11:05;;;;;;;22.60;13.80;;;8.10;99.90;;;;;;6075543;23;20504;-86
2022/03/27 07:13:35;;;;;;;23.47;13.33;;;8.20;99.70;;;;;;6080954;23;20416;-86
2022/03/27 07:16:20;;;;;;;30.73;14.50;;;8.30;99.50;;;;;;6083397;23;20927;-86
2022/03/27 07:25:14;;;;;;;33.17;14.83;;;8.70;98.50;;;;;;6080663;23;20428;-87
2022/03/27 07:27:53;;;;;;;23.77;14.10;;;8.90;98.10;;;;;;6083928;23;20472;-86
2022/03/27 07:31:11;;;;;;;29.37;15.07;;;9.10;97.70;;;;;;6081154;23;20414;-87
2022/03/27 07:37:26;;;;;;;22.20;14.10;;;9.30;96.70;;;;;;5956163;24;20427;-85
2022/03/27 07:43:25;;;;;;;28.00;15.70;;;9.60;95.60;;;;;;5982413;24;21004;-87
2022/03/27 07:52:05;;;;;;;22.47;14.20;;;10.00;93.90;;;;;;6031824;23;20442;-85
2022/03/27 07:54:51;;;;;;;25.53;16.20;;;9.90;94.30;;;;;;6046842;23;20385;-87
2022/03/27 07:58:12;;;;;;;29.57;17.03;;;10.00;94.00;;;;;;6047142;23;20434;-88
2022/03/27 08:01:21;;;;;;;31.03;18.20;;;10.10;93.90;;;;;;6041929;23;20441;-88
2022/03/27 08:42:45;;;;;;;25.87;15.77;;;11.70;91.40;;;;;;5754564;24;20398;-86
2022/03/27 08:45:46;;;;;;;27.10;17.47;;;11.80;90.80;;;;;;5785998;24;20465;-87
2022/03/27 09:06:07;;;;;;;;;;;;;;;;;;;;;
2022/03/27 09:16:01;;;;;;;20.10;14.00;;;13.00;87.70;;;;;;5750881;24;20414;-84
2022/03/27 09:22:38;;;;;;;;;;;;;;;;;;;;;
2022/03/27 09:25:17;;;;;;;26.23;14.30;;;13.30;87.00;;;;;;5961543;24;20427;-85
2022/03/27 09:31:24;;;;;;;28.37;12.93;;;13.40;85.70;;;;;;5868477;24;20844;-85
2022/03/27 09:34:00;;;;;;;25.97;14.07;;;13.40;85.50;;;;;;5961402;24;20426;-86
2022/03/27 09:36:42;;;;;;;21.97;14.20;;;13.50;85.40;;;;;;5962351;24;20472;-84
2022/03/27 09:39:30;;;;;;;22.53;13.77;;;13.70;85.10;;;;;;5969388;24;20409;-85
2022/03/27 09:42:20;;;;;;;19.63;11.13;;;13.80;84.40;;;;;;5954889;24;20464;-86
2022/03/27 09:45:08;;;;;;;23.77;14.50;;;13.80;83.50;;;;;;5976543;23;20436;-82
2022/03/27 09:48:23;;;;;;;21.40;13.83;;;13.90;83.50;;;;;;6022784;23;20439;-86
2022/03/27 10:06:11;;;;;;;19.80;13.53;;;14.70;79.80;;;;;;5896382;24;20429;-87
2022/03/27 11:29:40;;;;;;;23.20;12.70;;;17.10;68.20;;;;;;6108873;23;20455;-87
2022/03/27 11:45:59;;;;;;;15.77;9.23;;;17.30;64.60;;;;;;6078592;23;20540;-85
2022/03/27 11:48:34;;;;;;;19.67;11.87;;;17.40;63.20;;;;;;6112672;23;20427;-86
2022/03/27 11:54:29;;;;;;;20.37;11.80;;;17.50;60.80;;;;;;6105045;23;20384;-87
2022/03/27 11:57:03;;;;;;;18.93;10.50;;;17.50;60.00;;;;;;6079112;23;20745;-86
2022/03/27 11:59:31;;;;;;;18.17;11.47;;;17.60;60.20;;;;;;6079453;23;20357;-86
2022/03/27 12:02:01;;;;;;;18.00;10.83;;;17.80;59.90;;;;;;6078714;23;20488;-86
2022/03/27 12:04:29;;;;;;;24.07;12.30;;;17.80;59.40;;;;;;6081018;23;20420;-86
2022/03/27 12:07:02;;;;;;;15.73;10.40;;;17.80;59.40;;;;;;6082271;23;20416;-86
2022/03/27 12:10:11;;;;;;;17.63;10.00;;;17.80;58.50;;;;;;6081108;23;20389;-86
2022/03/27 12:12:38;;;;;;;19.47;11.83;;;17.80;57.40;;;;;;6083456;23;20406;-84
2022/03/27 12:15:09;;;;;;;18.50;11.70;;;17.80;57.30;;;;;;6080019;23;20483;-87
2022/03/27 12:17:54;;;;;;;16.17;10.57;;;17.90;57.20;;;;;;6079209;23;20435;-86
2022/03/27 12:20:55;;;;;;;16.40;10.37;;;18.10;55.80;;;;;;6081999;23;20393;-87
2022/03/27 12:33:03;;;;;;;15.57;9.70;;;18.10;55.20;;;;;;6046170;23;20450;-87
2022/03/27 12:35:31;;;;;;;17.30;9.43;;;18.20;54.40;;;;;;6078337;23;20414;-87
2022/03/27 12:38:00;;;;;;;15.23;10.03;;;18.40;52.90;;;;;;6079801;23;20504;-87
2022/03/27 12:43:32;;;;;;;17.37;10.40;;;18.40;52.90;;;;;;6078520;23;20413;-86
2022/03/27 12:46:20;;;;;;;16.40;9.60;;;18.50;51.90;;;;;;6078743;23;20454;-86
2022/03/27 12:49:04;;;;;;;19.80;10.00;;;18.50;51.60;;;;;;6083890;23;20487;-86
2022/03/27 12:51:35;;;;;;;15.37;9.50;;;18.50;51.60;;;;;;6080664;23;20422;-87
2022/03/27 12:54:05;;;;;;;17.37;9.07;;;18.60;51.30;;;;;;6078796;23;20409;-87
2022/03/27 12:56:33;;;;;;;16.60;9.87;;;18.70;50.90;;;;;;6076689;23;20418;-87
2022/03/27 12:59:17;;;;;;;18.77;10.40;;;18.80;50.40;;;;;;6078446;23;20428;-87
2022/03/27 13:01:46;;;;;;;19.40;10.20;;;18.80;49.80;;;;;;6084007;23;20433;-86
2022/03/27 13:04:17;;;;;;;20.77;9.83;;;18.80;49.70;;;;;;6090515;23;20453;-86
2022/03/27 13:06:58;;;;;;;17.03;9.10;;;18.80;48.60;;;;;;6092132;23;20414;-86
2022/03/27 13:09:26;;;;;;;12.00;8.63;;;18.80;49.10;;;;;;6091994;23;20470;-87
2022/03/27 13:12:13;;;;;;;15.70;10.00;;;18.90;49.00;;;;;;6085552;23;20406;-87
2022/03/27 13:14:49;;;;;;;20.33;9.97;;;18.90;48.70;;;;;;6085814;23;20442;-88
2022/03/27 13:17:40;;;;;;;13.47;9.50;;;19.00;49.10;;;;;;6091549;23;20402;-87
2022/03/27 13:20:54;;;;;;;16.00;9.53;;;19.10;48.60;;;;;;6087535;23;20801;-86
2022/03/27 13:23:25;;;;;;;14.50;8.60;;;19.10;47.80;;;;;;6079867;23;20527;-88
2022/03/27 13:26:01;;;;;;;14.00;8.67;;;19.10;48.00;;;;;;6076706;23;20468;-86
2022/03/27 13:28:34;;;;;;;17.03;8.70;;;19.20;46.80;;;;;;6078540;23;20442;-87
2022/03/27 13:31:21;;;;;;;18.50;10.07;;;19.30;46.90;;;;;;6078515;23;20391;-86
2022/03/27 13:34:09;;;;;;;19.37;10.70;;;19.30;46.70;;;;;;6093379;23;20398;-86
2022/03/27 13:36:50;;;;;;;15.70;9.07;;;19.40;47.00;;;;;;6090987;23;20472;-86
2022/03/27 13:39:22;;;;;;;21.73;9.30;;;19.50;46.50;;;;;;6086758;23;20424;-87
2022/03/27 13:44:37;;;;;;;14.50;9.93;;;19.50;45.80;;;;;;6079093;23;20453;-87
2022/03/27 13:47:05;;;;;;;14.87;8.80;;;19.50;45.50;;;;;;6077701;23;20422;-85
2022/03/27 13:49:33;;;;;;;13.20;8.97;;;19.50;45.50;;;;;;6077787;23;20740;-86
2022/03/27 13:52:02;;;;;;;14.00;8.97;;;19.40;45.70;;;;;;6077097;23;20383;-86
2022/03/27 13:54:29;;;;;;;15.20;7.83;;;19.50;45.40;;;;;;6077010;23;20477;-87
2022/03/27 13:56:56;;;;;;;18.83;11.00;;;19.60;44.40;;;;;;6076637;23;20439;-87
2022/03/27 13:59:26;;;;;;;19.63;9.80;;;19.60;44.60;;;;;;6076621;23;20956;-88
2022/03/27 14:01:54;;;;;;;17.37;9.47;;;19.60;44.50;;;;;;6082378;23;20379;-88
2022/03/27 14:04:21;;;;;;;18.20;8.57;;;19.70;44.20;;;;;;6093530;23;20395;-87
2022/03/27 14:07:18;;;;;;;13.90;9.40;;;19.70;44.40;;;;;;6078369;23;20446;-87
2022/03/27 14:09:47;;;;;;;17.47;8.57;;;19.80;45.00;;;;;;6080376;23;20402;-86
2022/03/27 14:12:14;;;;;;;13.97;7.83;;;19.90;44.40;;;;;;6075331;23;20733;-88
2022/03/27 14:18:02;;;;;;;17.47;9.00;;;19.90;43.60;;;;;;6074470;23;20410;-85
2022/03/27 14:24:13;;;;;;;13.63;8.17;;;19.90;42.90;;;;;;6016996;23;20389;-86
2022/03/27 14:26:45;;;;;;;15.60;8.67;;;19.80;43.00;;;;;;6076751;23;20881;-86
2022/03/27 14:32:52;;;;;;;18.93;10.23;;;20.00;44.00;;;;;;6075674;23;20397;-86
2022/03/27 14:35:30;;;;;;;16.13;9.50;;;20.10;43.40;;;;;;6087992;23;20437;-86
2022/03/27 14:38:02;;;;;;;14.20;9.43;;;20.10;43.40;;;;;;6089751;23;20427;-87
2022/03/27 14:40:29;;;;;;;14.40;9.37;;;20.10;43.50;;;;;;6085696;23;20417;-87
2022/03/27 14:42:58;;;;;;;17.70;8.70;;;20.20;43.40;;;;;;6075290;23;20425;-88
2022/03/27 14:45:47;;;;;;;14.80;9.47;;;20.20;43.00;;;;;;6079650;23;20457;-88
2022/03/27 14:48:20;;;;;;;16.23;8.73;;;20.30;43.30;;;;;;6075047;23;20383;-87
2022/03/27 14:50:50;;;;;;;17.80;8.97;;;20.40;42.70;;;;;;6076249;23;20417;-87
2022/03/27 14:53:20;;;;;;;15.63;9.10;;;20.40;42.00;;;;;;6079591;23;20421;-87
2022/03/27 14:55:58;;;;;;;13.80;8.00;;;20.40;42.50;;;;;;6074720;23;20473;-86
2022/03/27 14:58:34;;;;;;;16.47;9.87;;;20.40;42.40;;;;;;6085116;23;20437;-84
2022/03/27 15:04:20;;;;;;;14.80;9.90;;;20.40;42.60;;;;;;6076364;23;20409;-88
2022/03/27 15:06:51;;;;;;;13.93;8.67;;;20.60;42.30;;;;;;6075862;23;20500;-86
2022/03/27 15:09:21;;;;;;;16.17;9.00;;;20.50;42.50;;;;;;6084943;23;20429;-86
2022/03/27 15:11:52;;;;;;;15.80;9.87;;;20.50;42.80;;;;;;6089440;23;20413;-87
2022/03/27 15:14:32;;;;;;;17.67;9.83;;;20.60;42.30;;;;;;6095504;23;20390;-88
2022/03/27 15:17:11;;;;;;;16.70;9.60;;;20.80;41.90;;;;;;6088240;23;20424;-86
2022/03/27 15:19:41;;;;;;;15.17;9.33;;;20.80;41.70;;;;;;6076880;23;20413;-86
2022/03/27 15:22:13;;;;;;;19.10;10.37;;;20.80;41.80;;;;;;6075789;23;20421;-87
2022/03/27 15:25:04;;;;;;;17.93;9.20;;;21.00;41.60;;;;;;6077564;23;20424;-85
2022/03/27 15:27:39;;;;;;;13.77;8.83;;;21.20;41.50;;;;;;6076542;23;20421;-87
2022/03/27 15:33:09;;;;;;;20.40;13.60;;;21.60;41.00;;;;;;6090342;23;20406;-85
2022/03/27 15:35:39;;;;;;;15.40;9.03;;;21.90;41.10;;;;;;6087878;23;20456;-88
2022/03/27 15:38:07;;;;;;;17.57;11.43;;;22.20;40.30;;;;;;6078250;23;20417;-86
2022/03/27 15:40:36;;;;;;;18.13;11.40;;;22.40;39.80;;;;;;6081665;23;20926;-87
2022/03/27 15:43:23;;;;;;;11.87;9.50;;;22.30;39.30;;;;;;6078348;23;20589;-89
2022/03/27 15:46:04;;;;;;;15.70;9.20;;;22.60;39.20;;;;;;6079947;23;20544;-87
2022/03/27 15:52:28;;;;;;;13.87;9.30;;;22.70;38.20;;;;;;5917356;23;20416;-86
2022/03/27 15:55:02;;;;;;;16.47;8.70;;;22.60;37.60;;;;;;6083625;23;20433;-88
2022/03/27 16:01:32;;;;;;;16.37;8.90;;;22.40;37.90;;;;;;6016961;23;20421;-86
2022/03/27 16:07:28;;;;;;;13.83;9.77;;;21.60;38.40;;;;;;6068794;23;20468;-86
2022/03/27 16:13:13;;;;;;;20.47;9.40;;;20.90;40.70;;;;;;6090033;23;20401;-86
2022/03/27 16:18:39;;;;;;;20.53;9.80;;;20.60;41.80;;;;;;6082312;23;20402;-86
2022/03/27 16:21:29;;;;;;;14.00;9.10;;;20.50;41.70;;;;;;6080090;23;20410;-87
2022/03/27 16:27:09;;;;;;;16.40;9.53;;;20.10;41.50;;;;;;6100773;23;20520;-86
2022/03/27 16:29:52;;;;;;;15.90;9.23;;;20.10;42.20;;;;;;6115526;23;20424;-88
2022/03/27 16:32:36;;;;;;;12.60;7.83;;;20.00;42.10;;;;;;6122852;23;20433;-87
2022/03/27 16:35:13;;;;;;;18.80;8.90;;;20.00;42.20;;;;;;6112754;23;20471;-85
2022/03/27 16:38:12;;;;;;;18.60;8.93;;;20.00;42.40;;;;;;6118140;23;20579;-86
2022/03/27 16:41:00;;;;;;;15.57;8.93;;;20.00;42.90;;;;;;6117672;23;20481;-85
2022/03/27 16:43:54;;;;;;;14.07;8.73;;;19.90;43.00;;;;;;6111727;23;20435;-85
2022/03/27 17:07:52;;;;;;;15.63;9.40;;;19.40;44.40;;;;;;6103082;23;20473;-87
2022/03/27 17:11:03;;;;;;;20.37;10.07;;;19.50;43.90;;;;;;6115664;23;20485;-87
2022/03/27 17:13:35;;;;;;;14.93;10.47;;;19.50;43.90;;;;;;6117489;23;20404;-85
2022/03/27 17:16:06;;;;;;;15.00;9.50;;;19.40;44.00;;;;;;6122271;23;20440;-86
2022/03/27 17:18:46;;;;;;;17.60;10.30;;;19.30;44.30;;;;;;6112680;23;20413;-87
2022/03/27 17:27:50;;;;;;;11.97;7.37;;;19.20;44.50;;;;;;6101135;23;20432;-86
2022/03/27 17:30:44;;;;;;;15.93;9.33;;;19.20;44.70;;;;;;6105893;23;20439;-86
2022/03/27 17:33:17;;;;;;;19.80;11.17;;;19.10;45.00;;;;;;6054437;23;20439;-87
2022/03/27 17:36:17;;;;;;;18.03;9.17;;;19.10;45.20;;;;;;6106965;23;20436;-86
2022/03/27 17:38:58;;;;;;;13.87;9.43;;;19.00;45.70;;;;;;5962235;24;20849;-86
2022/03/27 17:41:56;;;;;;;13.97;7.67;;;18.90;46.20;;;;;;6100235;23;20421;-87
2022/03/27 17:44:39;;;;;;;12.17;7.43;;;18.80;46.00;;;;;;6108564;23;20440;-87
